Terminal Aerodrome Forecast
Issued by NWS

Home | Current Version | Previous Version | Text Only | Print | Product List | Glossary On
Versions: 1 2 3 4 5 6 7 8 9 10 11 12 13 14 15 16 17
000
FTUS43 KBIS 022325
TAFJMS
TAF
KJMS 022325Z 0300/0324 34011KT P6SM SKC
     FM030300 32005KT P6SM SKC
     FM031700 32012KT P6SM SCT050=

USA.gov is the U.S. government's official web portal to all federal, state and local government web resources and services.